createdAt,value
2023-02-18T00:00:17.657Z,100.00
2023-02-18T00:02:52.770Z,100.00
2023-02-18T00:05:26.281Z,100.00
2023-02-18T00:07:56.347Z,100.00
2023-02-18T00:10:30.765Z,100.00
2023-02-18T00:13:01.726Z,100.00
2023-02-18T00:15:28.853Z,100.00
2023-02-18T00:17:55.701Z,100.00
2023-02-18T00:20:31.506Z,100.00
2023-02-18T00:22:59.230Z,100.00
2023-02-18T00:25:33.774Z,100.00
2023-02-18T00:28:00.626Z,100.00
2023-02-18T00:30:34.934Z,100.00
2023-02-18T00:33:01.994Z,100.00
2023-02-18T00:35:28.742Z,100.00
2023-02-18T00:37:55.499Z,100.00
2023-02-18T00:40:32.813Z,100.00
2023-02-18T00:42:59.591Z,100.00
2023-02-18T00:45:26.253Z,100.00
2023-02-18T00:47:52.966Z,100.00
2023-02-18T00:50:21.070Z,100.00
2023-02-18T00:52:48.112Z,100.00
2023-02-18T00:55:14.943Z,100.00
2023-02-18T00:57:44.662Z,100.00
2023-02-18T01:00:11.653Z,100.00
2023-02-18T01:02:38.253Z,100.00
2023-02-18T01:05:08.221Z,100.00
2023-02-18T01:07:34.984Z,100.00
2023-02-18T01:10:01.718Z,100.00
2023-02-18T01:12:28.564Z,100.00
2023-02-18T01:14:55.115Z,100.00
2023-02-18T01:17:21.809Z,100.00
2023-02-18T01:19:48.557Z,100.00
2023-02-18T01:22:18.356Z,100.00
2023-02-18T01:24:46.471Z,100.00
2023-02-18T01:27:14.018Z,100.00
2023-02-18T01:29:40.915Z,100.00
2023-02-18T01:32:07.710Z,100.00
2023-02-18T01:34:44.993Z,100.00
2023-02-18T01:37:20.667Z,100.00
2023-02-18T01:39:48.692Z,100.00
2023-02-18T01:42:24.966Z,100.00
2023-02-18T01:44:52.388Z,100.00
2023-02-18T01:47:19.717Z,100.00
2023-02-18T01:49:53.144Z,100.00
2023-02-18T01:52:24.544Z,100.00
2023-02-18T01:54:58.015Z,100.00
2023-02-18T01:57:29.973Z,100.00
2023-02-18T01:59:59.499Z,100.00
2023-02-18T02:02:34.224Z,100.00
2023-02-18T02:05:01.569Z,100.00
2023-02-18T02:07:29.449Z,100.00
2023-02-18T02:09:59.335Z,100.00
2023-02-18T02:12:44.674Z,100.00
2023-02-18T02:15:42.777Z,100.00
2023-02-18T02:18:21.272Z,100.00
2023-02-18T02:21:07.390Z,100.00
2023-02-18T02:24:15.614Z,100.00
2023-02-18T02:27:08.709Z,100.00
2023-02-18T02:30:18.128Z,100.00
2023-02-18T02:33:03.368Z,100.00
2023-02-18T02:35:35.470Z,100.00
2023-02-18T02:38:18.934Z,100.00
2023-02-18T02:40:55.166Z,100.00
2023-02-18T02:43:36.259Z,100.00
2023-02-18T02:46:26.043Z,100.00
2023-02-18T02:49:30.220Z,100.00
2023-02-18T02:52:14.379Z,100.00
2023-02-18T02:54:41.080Z,100.00
2023-02-18T02:57:13.939Z,100.00
2023-02-18T02:59:44.580Z,100.00
2023-02-18T03:02:28.465Z,100.00
2023-02-18T03:05:25.272Z,100.00
2023-02-18T03:08:02.992Z,100.00
2023-02-18T03:10:56.237Z,100.00
2023-02-18T03:13:39.503Z,100.00
2023-02-18T03:16:15.446Z,100.00
2023-02-18T03:19:11.177Z,100.00
2023-02-18T03:22:01.672Z,100.00
2023-02-18T03:24:39.546Z,100.00
2023-02-18T03:27:14.352Z,100.00
2023-02-18T03:29:46.469Z,100.00
2023-02-18T03:32:18.668Z,100.00
2023-02-18T03:34:55.060Z,100.00
2023-02-18T03:37:24.366Z,100.00
2023-02-18T03:39:57.136Z,100.00
2023-02-18T03:42:28.358Z,100.00
2023-02-18T03:44:58.121Z,100.00
2023-02-18T03:47:27.773Z,100.00
2023-02-18T03:49:54.655Z,100.00
2023-02-18T03:52:23.235Z,100.00
2023-02-18T03:54:52.867Z,100.00
2023-02-18T03:57:19.569Z,100.00
2023-02-18T03:59:46.157Z,100.00
2023-02-18T04:02:15.233Z,100.00
2023-02-18T04:04:41.922Z,100.00
2023-02-18T04:07:08.942Z,100.00
2023-02-18T04:09:35.693Z,100.00
2023-02-18T04:12:02.420Z,100.00
2023-02-18T04:14:29.034Z,100.00
2023-02-18T04:16:55.841Z,100.00
2023-02-18T04:19:22.504Z,100.00
2023-02-18T04:21:49.179Z,100.00
2023-02-18T04:24:15.754Z,100.00
2023-02-18T04:26:42.328Z,100.00
2023-02-18T04:29:08.896Z,100.00
2023-02-18T04:31:35.719Z,100.00
2023-02-18T04:34:04.792Z,100.00
2023-02-18T04:36:31.564Z,100.00
2023-02-18T04:38:58.120Z,100.00
2023-02-18T04:41:24.700Z,100.00
2023-02-18T04:43:51.363Z,100.00
2023-02-18T04:46:18.381Z,100.00
2023-02-18T04:48:44.928Z,100.00
2023-02-18T04:51:11.482Z,100.00
2023-02-18T04:53:38.336Z,100.00
2023-02-18T04:56:05.234Z,100.00
2023-02-18T04:58:31.984Z,100.00
2023-02-18T05:01:02.902Z,100.00
2023-02-18T05:03:30.201Z,100.00
2023-02-18T05:05:57.890Z,100.00
2023-02-18T05:08:26.010Z,100.00
2023-02-18T05:10:52.715Z,100.00
2023-02-18T05:13:19.633Z,100.00
2023-02-18T05:15:46.384Z,100.00
2023-02-18T05:18:15.602Z,100.00
2023-02-18T05:20:42.351Z,100.00
2023-02-18T05:23:08.991Z,100.00
2023-02-18T05:25:35.538Z,100.00
2023-02-18T05:28:05.289Z,100.00
2023-02-18T05:30:31.951Z,100.00
2023-02-18T05:32:58.645Z,100.00
2023-02-18T05:35:25.302Z,100.00
2023-02-18T05:37:51.878Z,100.00
2023-02-18T05:40:18.550Z,100.00
2023-02-18T05:42:45.177Z,100.00
2023-02-18T05:45:11.936Z,100.00
2023-02-18T05:47:38.701Z,100.00
2023-02-18T05:50:06.079Z,100.00
2023-02-18T05:52:33.733Z,100.00
2023-02-18T05:55:00.386Z,100.00
2023-02-18T05:57:27.390Z,100.00
2023-02-18T05:59:54.061Z,100.00
2023-02-18T06:02:21.021Z,100.00
2023-02-18T06:04:47.665Z,100.00
2023-02-18T06:07:14.641Z,100.00
2023-02-18T06:09:44.347Z,100.00
2023-02-18T06:12:10.913Z,100.00
2023-02-18T06:14:38.328Z,100.00
2023-02-18T06:17:05.172Z,100.00
2023-02-18T06:19:31.820Z,100.00
2023-02-18T06:21:58.387Z,100.00
2023-02-18T06:24:25.020Z,100.00
2023-02-18T06:26:51.568Z,100.00
2023-02-18T06:29:18.067Z,100.00
2023-02-18T06:31:44.732Z,100.00
2023-02-18T06:34:11.462Z,100.00
2023-02-18T06:36:38.056Z,100.00
2023-02-18T06:39:06.460Z,100.00
2023-02-18T06:41:33.280Z,100.00
2023-02-18T06:43:59.948Z,100.00
2023-02-18T06:46:26.830Z,100.00
2023-02-18T06:48:53.574Z,100.00
2023-02-18T06:51:22.051Z,100.00
2023-02-18T06:53:48.698Z,100.00
2023-02-18T06:56:15.271Z,100.00
2023-02-18T06:58:41.855Z,100.00
2023-02-18T07:01:11.689Z,100.00
2023-02-18T07:03:38.519Z,100.00
2023-02-18T07:06:05.421Z,100.00
2023-02-18T07:08:36.243Z,100.00
2023-02-18T07:11:03.057Z,100.00
2023-02-18T07:13:34.305Z,100.00
2023-02-18T07:16:03.408Z,100.00
2023-02-18T07:18:30.116Z,100.00
2023-02-18T07:20:56.858Z,100.00
2023-02-18T07:23:24.502Z,100.00
2023-02-18T07:25:51.147Z,100.00
2023-02-18T07:28:17.853Z,100.00
2023-02-18T07:30:45.954Z,100.00
2023-02-18T07:33:14.234Z,100.00
2023-02-18T07:35:40.938Z,100.00
2023-02-18T07:38:10.535Z,100.00
2023-02-18T07:40:37.192Z,100.00
2023-02-18T07:43:05.631Z,100.00
2023-02-18T07:45:32.615Z,100.00
2023-02-18T07:48:01.641Z,100.00
2023-02-18T07:50:28.543Z,100.00
2023-02-18T07:52:55.376Z,100.00
2023-02-18T07:55:24.791Z,100.00
2023-02-18T07:57:57.578Z,100.00
2023-02-18T08:00:32.818Z,100.00
2023-02-18T08:02:59.660Z,100.00
2023-02-18T08:08:14.030Z,100.00
2023-02-18T08:10:51.948Z,100.00
2023-02-18T08:13:18.725Z,100.00
2023-02-18T08:15:48.405Z,100.00
2023-02-18T08:18:28.081Z,100.00
2023-02-18T08:20:54.855Z,100.00
2023-02-18T08:23:30.366Z,100.00
2023-02-18T08:26:05.859Z,100.00
2023-02-18T08:28:33.205Z,100.00
2023-02-18T08:31:05.954Z,100.00
2023-02-18T08:33:33.610Z,100.00
2023-02-18T08:36:23.058Z,100.00
2023-02-18T08:39:00.145Z,100.00
2023-02-18T08:41:26.841Z,100.00
2023-02-18T08:43:57.002Z,100.00
2023-02-18T08:46:25.309Z,100.00
2023-02-18T08:49:04.012Z,99.26
2023-02-18T08:51:34.622Z,98.84
2023-02-18T08:54:04.680Z,100.00
2023-02-18T08:56:36.826Z,98.86
2023-02-18T08:59:03.412Z,99.48
2023-02-18T09:01:45.320Z,97.01
2023-02-18T09:04:25.955Z,97.92
2023-02-18T09:06:57.433Z,96.91
2023-02-18T09:09:24.686Z,95.66
2023-02-18T09:11:54.933Z,96.12
2023-02-18T09:14:26.270Z,95.14
2023-02-18T09:16:55.068Z,95.89
2023-02-18T09:19:21.846Z,94.68
2023-02-18T09:21:59.122Z,94.71
2023-02-18T09:24:30.302Z,93.76
2023-02-18T09:26:57.196Z,95.17
2023-02-18T09:29:29.340Z,94.75
2023-02-18T09:31:56.168Z,93.83
2023-02-18T09:34:22.849Z,94.31
2023-02-18T09:36:49.686Z,95.17
2023-02-18T09:39:24.190Z,94.68
2023-02-18T09:41:54.675Z,93.92
2023-02-18T09:44:46.244Z,94.18
2023-02-18T09:47:22.085Z,93.71
2023-02-18T09:49:55.959Z,94.38
2023-02-18T09:52:42.271Z,93.54
2023-02-18T09:55:23.378Z,95.23
2023-02-18T09:57:56.694Z,95.49
2023-02-18T10:00:32.308Z,95.99
2023-02-18T10:03:26.484Z,96.01
2023-02-18T10:06:03.783Z,96.25
2023-02-18T10:08:43.869Z,95.20
2023-02-18T10:11:17.453Z,95.43
2023-02-18T10:13:52.887Z,95.53
2023-02-18T10:16:25.205Z,96.08
2023-02-18T10:19:04.972Z,96.19
2023-02-18T10:21:38.517Z,96.10
2023-02-18T10:24:40.488Z,96.92
2023-02-18T10:27:12.363Z,95.85
2023-02-18T10:29:39.186Z,95.61
2023-02-18T10:32:30.176Z,96.12
2023-02-18T10:35:24.207Z,96.76
2023-02-18T10:38:19.438Z,96.36
2023-02-18T10:41:14.791Z,95.30
2023-02-18T10:44:48.048Z,94.05
2023-02-18T10:47:40.349Z,93.92
2023-02-18T10:50:12.155Z,95.06
2023-02-18T10:52:42.952Z,95.08
2023-02-18T10:55:15.789Z,94.58
2023-02-18T10:57:54.632Z,95.62
2023-02-18T11:00:31.299Z,95.55
2023-02-18T11:03:29.753Z,96.32
2023-02-18T11:05:59.764Z,95.75
2023-02-18T11:08:29.516Z,95.58
2023-02-18T11:11:13.323Z,96.61
2023-02-18T11:13:49.377Z,94.50
2023-02-18T11:16:17.357Z,95.13
2023-02-18T11:18:49.525Z,94.48
2023-02-18T11:21:26.645Z,95.20
2023-02-18T11:23:55.613Z,95.91
2023-02-18T11:26:30.568Z,95.57
2023-02-18T11:29:08.354Z,95.17
2023-02-18T11:31:47.219Z,94.32
2023-02-18T11:34:31.099Z,92.71
2023-02-18T11:37:09.812Z,94.25
2023-02-18T11:39:41.581Z,93.86
2023-02-18T11:42:08.264Z,93.09
2023-02-18T11:44:41.488Z,94.11
2023-02-18T11:47:13.964Z,94.77
2023-02-18T11:49:45.499Z,94.91
2023-02-18T11:52:19.883Z,95.55
2023-02-18T11:55:17.685Z,95.72
2023-02-18T11:57:50.450Z,96.15
2023-02-18T12:00:34.625Z,95.96
2023-02-18T12:03:05.479Z,94.37
2023-02-18T12:05:33.361Z,94.52
2023-02-18T12:08:14.809Z,94.50
2023-02-18T12:10:47.304Z,94.91
2023-02-18T12:13:34.534Z,94.36
2023-02-18T12:16:20.592Z,94.26
2023-02-18T12:19:02.353Z,94.06
2023-02-18T12:21:37.592Z,93.53
2023-02-18T12:24:18.753Z,94.36
2023-02-18T12:26:55.702Z,95.08
2023-02-18T12:30:06.642Z,94.50
2023-02-18T12:32:45.290Z,93.86
2023-02-18T12:35:20.768Z,93.77
2023-02-18T12:38:11.444Z,95.15
2023-02-18T12:40:48.159Z,94.85
2023-02-18T12:43:32.564Z,95.71
2023-02-18T12:46:32.735Z,95.24
2023-02-18T12:49:25.692Z,95.80
2023-02-18T12:52:11.581Z,96.36
2023-02-18T12:55:20.154Z,97.64
2023-02-18T12:58:05.549Z,97.50
2023-02-18T13:00:50.542Z,100.00
2023-02-18T13:03:38.676Z,100.00
2023-02-18T13:06:34.685Z,100.00
2023-02-18T13:09:26.485Z,100.00
2023-02-18T13:12:19.723Z,100.00
2023-02-18T13:15:03.504Z,100.00
2023-02-18T13:17:36.396Z,100.00
2023-02-18T13:20:22.391Z,100.00
2023-02-18T13:22:53.431Z,100.00
2023-02-18T13:25:21.910Z,100.00
2023-02-18T13:28:02.407Z,100.00
2023-02-18T13:30:44.904Z,100.00
2023-02-18T13:33:20.356Z,100.00
2023-02-18T13:36:00.669Z,100.00
2023-02-18T13:38:51.285Z,100.00
2023-02-18T13:41:19.552Z,100.00
2023-02-18T13:43:48.004Z,100.00
2023-02-18T13:46:23.050Z,100.00
2023-02-18T13:49:00.663Z,100.00
2023-02-18T13:51:44.186Z,100.00
2023-02-18T13:54:15.533Z,100.00
2023-02-18T13:56:45.386Z,100.00
2023-02-18T13:59:20.383Z,100.00
2023-02-18T14:01:51.796Z,100.00
2023-02-18T14:04:48.373Z,100.00
2023-02-18T14:07:33.035Z,100.00
2023-02-18T14:10:01.807Z,100.00
2023-02-18T14:12:30.998Z,100.00
2023-02-18T14:14:58.823Z,100.00
2023-02-18T14:17:33.408Z,100.00
2023-02-18T14:20:19.887Z,100.00
2023-02-18T14:26:16.558Z,100.00
2023-02-18T14:39:18.631Z,100.00
2023-02-18T14:42:03.540Z,100.00
2023-02-18T14:44:47.261Z,100.00
2023-02-18T14:47:53.532Z,100.00
2023-02-18T14:50:21.312Z,100.00
2023-02-18T14:52:53.095Z,100.00
2023-02-18T14:55:25.188Z,100.00
2023-02-18T14:58:00.876Z,100.00
2023-02-18T15:00:32.337Z,100.00
2023-02-18T15:03:03.808Z,100.00
2023-02-18T15:05:32.976Z,100.00
2023-02-18T15:08:01.106Z,100.00
2023-02-18T15:10:48.256Z,100.00
2023-02-18T15:13:45.288Z,100.00
2023-02-18T15:16:27.111Z,100.00
2023-02-18T15:18:58.015Z,100.00
2023-02-18T15:21:27.255Z,100.00
2023-02-18T15:23:54.021Z,100.00
2023-02-18T15:26:21.605Z,100.00
2023-02-18T15:29:06.967Z,100.00
2023-02-18T15:31:39.012Z,100.00
2023-02-18T15:34:24.380Z,100.00
2023-02-18T15:36:52.267Z,100.00
2023-02-18T15:39:23.400Z,100.00
2023-02-18T15:42:00.878Z,100.00
2023-02-18T15:44:30.378Z,100.00
2023-02-18T15:47:08.554Z,100.00
2023-02-18T15:49:38.931Z,100.00
2023-02-18T15:52:11.208Z,100.00
2023-02-18T15:54:41.636Z,100.00
2023-02-18T15:57:15.643Z,100.00
2023-02-18T15:59:55.755Z,100.00
2023-02-18T16:02:25.535Z,100.00
2023-02-18T16:05:00.176Z,100.00
2023-02-18T16:07:32.941Z,100.00
2023-02-18T16:10:18.269Z,100.00
2023-02-18T16:12:55.303Z,100.00
2023-02-18T16:15:29.076Z,100.00
2023-02-18T16:17:58.880Z,100.00
2023-02-18T16:20:50.295Z,100.00
2023-02-18T16:23:17.024Z,100.00
2023-02-18T16:25:47.052Z,100.00
2023-02-18T16:28:16.497Z,100.00
2023-02-18T16:30:46.085Z,100.00
2023-02-18T16:33:13.108Z,100.00
2023-02-18T16:35:49.523Z,100.00
2023-02-18T16:38:19.760Z,100.00
2023-02-18T16:40:46.596Z,100.00
2023-02-18T16:43:16.142Z,100.00
2023-02-18T16:45:49.223Z,100.00
2023-02-18T16:48:35.846Z,100.00
2023-02-18T16:51:09.412Z,100.00
2023-02-18T16:53:36.393Z,100.00
2023-02-18T16:56:03.332Z,100.00
2023-02-18T16:58:30.063Z,100.00
2023-02-18T17:00:56.969Z,100.00
2023-02-18T17:03:23.650Z,100.00
2023-02-18T17:05:50.234Z,100.00
2023-02-18T17:08:27.238Z,100.00
2023-02-18T17:10:56.675Z,100.00
2023-02-18T17:13:30.855Z,100.00
2023-02-18T17:15:58.938Z,100.00
2023-02-18T17:18:29.224Z,100.00
2023-02-18T17:22:02.293Z,100.00
2023-02-18T17:24:28.853Z,100.00
2023-02-18T17:26:55.542Z,100.00
2023-02-18T17:29:22.328Z,100.00
2023-02-18T17:31:57.759Z,100.00
2023-02-18T17:34:30.953Z,100.00
2023-02-18T17:37:02.607Z,100.00
2023-02-18T17:39:36.064Z,100.00
2023-02-18T17:42:02.810Z,100.00
2023-02-18T17:44:29.823Z,100.00
2023-02-18T17:46:56.526Z,100.00
2023-02-18T17:49:23.214Z,100.00
2023-02-18T17:51:49.773Z,100.00
2023-02-18T17:54:19.344Z,100.00
2023-02-18T17:56:53.295Z,100.00
2023-02-18T17:59:19.882Z,100.00
2023-02-18T18:01:46.688Z,100.00
2023-02-18T18:04:15.489Z,100.00
2023-02-18T18:06:42.307Z,100.00
2023-02-18T18:09:09.242Z,100.00
2023-02-18T18:11:38.338Z,100.00
2023-02-18T18:14:05.395Z,100.00
2023-02-18T18:16:32.387Z,100.00
2023-02-18T18:19:02.433Z,100.00
2023-02-18T18:21:37.641Z,100.00
2023-02-18T18:24:06.719Z,100.00
2023-02-18T18:26:33.447Z,100.00
2023-02-18T18:29:00.142Z,100.00
2023-02-18T18:31:29.364Z,100.00
2023-02-18T18:33:59.935Z,100.00
2023-02-18T18:36:26.641Z,100.00
2023-02-18T18:38:53.287Z,100.00
2023-02-18T18:45:00.032Z,100.00
2023-02-18T18:47:28.454Z,100.00
2023-02-18T18:49:55.239Z,100.00
2023-02-18T18:52:22.033Z,100.00
2023-02-18T18:54:50.028Z,100.00
2023-02-18T18:57:19.509Z,100.00
2023-02-18T18:59:46.432Z,100.00
2023-02-18T19:02:16.940Z,100.00
2023-02-18T19:07:57.475Z,100.00
2023-02-18T19:10:33.017Z,100.00
2023-02-18T19:13:09.705Z,100.00
2023-02-18T19:15:39.356Z,100.00
2023-02-18T19:18:09.336Z,100.00
2023-02-18T19:20:36.315Z,100.00
2023-02-18T19:23:03.719Z,100.00
2023-02-18T19:25:37.623Z,100.00
2023-02-18T19:28:05.161Z,100.00
2023-02-18T19:30:36.583Z,100.00
2023-02-18T19:33:05.795Z,100.00
2023-02-18T19:35:35.554Z,100.00
2023-02-18T19:38:27.505Z,100.00
2023-02-18T19:41:20.631Z,100.00
2023-02-18T19:43:47.689Z,100.00
2023-02-18T19:46:17.113Z,100.00
2023-02-18T19:48:47.094Z,100.00
2023-02-18T19:51:16.736Z,100.00
2023-02-18T19:53:43.732Z,100.00
2023-02-18T19:56:10.478Z,100.00
2023-02-18T19:58:37.518Z,100.00
2023-02-18T20:01:10.961Z,100.00
2023-02-18T20:03:39.917Z,100.00
2023-02-18T20:06:06.693Z,100.00
2023-02-18T20:08:37.073Z,100.00
2023-02-18T20:11:03.839Z,100.00
2023-02-18T20:13:30.548Z,100.00
2023-02-18T20:15:57.202Z,100.00
2023-02-18T20:18:23.925Z,100.00
2023-02-18T20:20:58.396Z,100.00
2023-02-18T20:23:25.257Z,100.00
2023-02-18T20:25:52.080Z,100.00
2023-02-18T20:28:18.665Z,100.00
2023-02-18T20:30:46.563Z,100.00
2023-02-18T20:33:13.192Z,100.00
2023-02-18T20:35:40.065Z,100.00
2023-02-18T20:38:06.642Z,100.00
2023-02-18T20:40:33.291Z,100.00
2023-02-18T20:42:59.922Z,100.00
2023-02-18T20:45:26.814Z,100.00
2023-02-18T20:47:53.456Z,100.00
2023-02-18T20:50:21.881Z,100.00
2023-02-18T20:52:48.522Z,100.00
2023-02-18T20:55:15.089Z,100.00
2023-02-18T20:57:41.600Z,100.00
2023-02-18T21:00:09.641Z,100.00
2023-02-18T21:02:36.306Z,100.00
2023-02-18T21:05:04.285Z,100.00
2023-02-18T21:07:30.893Z,100.00
2023-02-18T21:09:57.571Z,100.00
2023-02-18T21:12:24.395Z,100.00
2023-02-18T21:14:55.407Z,100.00
2023-02-18T21:17:22.202Z,100.00
2023-02-18T21:19:48.807Z,100.00
2023-02-18T21:22:18.047Z,100.00
2023-02-18T21:24:44.704Z,100.00
2023-02-18T21:27:11.458Z,100.00
2023-02-18T21:29:38.068Z,100.00
2023-02-18T21:32:05.135Z,100.00
2023-02-18T21:34:31.695Z,100.00
2023-02-18T21:36:58.311Z,100.00
2023-02-18T21:39:24.893Z,100.00
2023-02-18T21:41:51.434Z,100.00
2023-02-18T21:44:18.375Z,100.00
2023-02-18T21:46:44.951Z,100.00
2023-02-18T21:49:12.886Z,100.00
2023-02-18T21:51:57.113Z,100.00
2023-02-18T21:54:34.133Z,100.00
2023-02-18T21:57:06.019Z,100.00
2023-02-18T21:59:34.229Z,100.00
2023-02-18T22:02:02.493Z,100.00
2023-02-18T22:04:31.267Z,100.00
2023-02-18T22:06:58.688Z,100.00
2023-02-18T22:09:26.169Z,100.00
2023-02-18T22:11:52.962Z,100.00
2023-02-18T22:14:20.057Z,100.00
2023-02-18T22:16:46.829Z,100.00
2023-02-18T22:19:14.185Z,100.00
2023-02-18T22:21:51.114Z,100.00
2023-02-18T22:24:19.084Z,100.00
2023-02-18T22:26:46.744Z,100.00
2023-02-18T22:29:15.048Z,100.00
2023-02-18T22:31:42.341Z,100.00
2023-02-18T22:34:10.875Z,100.00
2023-02-18T22:39:39.230Z,100.00
2023-02-18T22:42:05.967Z,100.00
2023-02-18T22:44:32.611Z,100.00
2023-02-18T22:46:59.236Z,100.00
2023-02-18T22:49:26.094Z,100.00
2023-02-18T22:51:54.300Z,100.00
2023-02-18T22:54:22.584Z,100.00
2023-02-18T22:56:49.681Z,100.00
2023-02-18T22:59:17.926Z,100.00
2023-02-18T23:01:50.498Z,100.00
2023-02-18T23:04:19.327Z,100.00
2023-02-18T23:06:47.213Z,100.00
2023-02-18T23:09:20.532Z,100.00
2023-02-18T23:11:51.099Z,100.00
2023-02-18T23:14:19.055Z,100.00
2023-02-18T23:17:07.784Z,100.00
2023-02-18T23:19:36.255Z,100.00
2023-02-18T23:22:03.258Z,100.00
2023-02-18T23:24:32.510Z,100.00
2023-02-18T23:26:59.294Z,100.00
2023-02-18T23:29:26.121Z,100.00
2023-02-18T23:31:52.711Z,100.00
2023-02-18T23:34:19.361Z,100.00
2023-02-18T23:36:47.477Z,100.00
2023-02-18T23:39:17.631Z,100.00
2023-02-18T23:41:44.327Z,100.00
2023-02-18T23:44:13.480Z,100.00
2023-02-18T23:46:40.243Z,100.00
2023-02-18T23:49:06.879Z,100.00
2023-02-18T23:51:33.781Z,100.00
2023-02-18T23:54:03.691Z,100.00
2023-02-18T23:56:30.425Z,100.00
2023-02-18T23:59:01.725Z,100.00
